createdAt,value
2018-06-23T00:01:34.202Z,20.50
2018-06-23T00:04:08.717Z,23.30
2018-06-23T00:06:45.625Z,20.50
2018-06-23T00:09:20.737Z,20.53
2018-06-23T00:11:55.185Z,16.73
2018-06-23T00:14:29.770Z,18.77
2018-06-23T00:17:04.235Z,16.97
2018-06-23T00:19:39.695Z,23.00
2018-06-23T00:22:14.237Z,15.83
2018-06-23T00:24:48.844Z,18.27
2018-06-23T00:27:23.364Z,19.63
2018-06-23T00:30:04.031Z,18.83
2018-06-23T00:32:38.642Z,18.90
2018-06-23T00:35:13.141Z,18.37
2018-06-23T00:37:47.959Z,15.37
2018-06-23T00:40:22.879Z,21.67
2018-06-23T00:42:57.396Z,23.50
2018-06-23T00:45:31.960Z,22.10
2018-06-23T00:48:06.520Z,19.47
2018-06-23T00:50:41.041Z,19.87
2018-06-23T00:53:15.776Z,18.63
2018-06-23T00:55:50.295Z,21.40
2018-06-23T00:58:24.776Z,22.47
2018-06-23T01:00:59.644Z,16.70
2018-06-23T01:03:34.296Z,19.83
2018-06-23T01:06:08.828Z,30.10
2018-06-23T01:08:43.368Z,18.27
2018-06-23T01:11:18.030Z,13.73
2018-06-23T01:13:53.725Z,17.57
2018-06-23T01:16:28.332Z,18.53
2018-06-23T01:22:14.616Z,16.23
2018-06-23T01:24:56.628Z,20.77
2018-06-23T01:30:31.035Z,24.50
2018-06-23T01:33:06.067Z,20.63
2018-06-23T01:35:40.756Z,22.73
2018-06-23T01:38:25.065Z,23.67
2018-06-23T01:41:00.110Z,20.00
2018-06-23T01:43:34.750Z,22.77
2018-06-23T01:46:10.104Z,22.97
2018-06-23T01:48:48.700Z,23.37
2018-06-23T01:51:23.228Z,22.93
2018-06-23T01:53:57.768Z,17.93
2018-06-23T01:56:32.205Z,15.10
2018-06-23T01:59:06.695Z,20.83
2018-06-23T02:01:41.280Z,23.57
2018-06-23T02:04:15.808Z,23.70
2018-06-23T02:06:50.289Z,28.97
2018-06-23T02:09:24.943Z,24.73
2018-06-23T02:11:59.605Z,27.70
2018-06-23T02:14:39.308Z,27.87
2018-06-23T02:17:19.487Z,26.07
2018-06-23T02:19:59.328Z,22.53
2018-06-23T02:22:39.198Z,29.77
2018-06-23T02:25:19.123Z,19.37
2018-06-23T02:27:59.368Z,27.27
2018-06-23T02:30:40.061Z,23.47
2018-06-23T02:33:20.084Z,22.97
2018-06-23T02:35:54.689Z,21.80
2018-06-23T02:38:29.217Z,28.00
2018-06-23T02:41:03.738Z,26.80
2018-06-23T02:43:38.332Z,18.57
2018-06-23T02:46:13.026Z,28.10
2018-06-23T02:48:47.557Z,25.10
2018-06-23T02:51:22.349Z,28.40
2018-06-23T02:53:56.808Z,32.50
2018-06-23T02:56:31.525Z,34.17
2018-06-23T02:59:06.537Z,28.87
2018-06-23T03:01:41.758Z,36.70
2018-06-23T03:04:16.567Z,34.20
2018-06-23T03:06:51.768Z,31.10
2018-06-23T03:09:27.680Z,30.33
2018-06-23T03:12:02.713Z,40.93
2018-06-23T03:14:37.386Z,44.67
2018-06-23T03:17:17.735Z,35.70
2018-06-23T03:19:52.417Z,35.57
2018-06-23T03:22:27.052Z,40.70
2018-06-23T03:25:01.691Z,31.00
2018-06-23T03:27:36.273Z,34.37
2018-06-23T03:30:10.843Z,29.03
2018-06-23T03:32:45.428Z,25.67
2018-06-23T03:35:20.152Z,28.30
2018-06-23T03:37:54.917Z,28.23
2018-06-23T03:40:29.543Z,40.17
2018-06-23T03:43:04.442Z,20.30
2018-06-23T03:45:39.143Z,22.73
2018-06-23T03:48:13.783Z,23.83
2018-06-23T03:50:48.445Z,30.63
2018-06-23T03:53:23.029Z,20.07
2018-06-23T03:55:57.644Z,21.00
2018-06-23T03:58:32.220Z,24.30
2018-06-23T04:01:08.697Z,27.73
2018-06-23T04:03:43.304Z,21.13
2018-06-23T04:06:18.029Z,18.20
2018-06-23T04:08:52.615Z,24.20
2018-06-23T04:11:27.260Z,24.00
2018-06-23T04:14:01.995Z,23.37
2018-06-23T04:16:36.517Z,18.00
2018-06-23T04:19:11.192Z,26.87
2018-06-23T04:21:45.756Z,21.27
2018-06-23T04:24:20.240Z,21.30
2018-06-23T04:26:54.677Z,16.30
2018-06-23T04:29:29.080Z,25.93
2018-06-23T04:32:03.574Z,28.70
2018-06-23T04:34:38.064Z,23.87
2018-06-23T04:37:12.492Z,21.13
2018-06-23T04:39:46.936Z,19.53
2018-06-23T04:42:21.429Z,25.83
2018-06-23T04:44:55.904Z,20.83
2018-06-23T04:47:30.446Z,13.87
2018-06-23T04:50:04.995Z,31.10
2018-06-23T04:52:39.461Z,20.47
2018-06-23T04:55:14.040Z,27.03
2018-06-23T04:57:48.509Z,21.30
2018-06-23T05:00:25.508Z,32.33
2018-06-23T05:02:59.994Z,18.10
2018-06-23T05:05:34.533Z,22.90
2018-06-23T05:08:09.133Z,17.80
2018-06-23T05:10:43.640Z,15.47
2018-06-23T05:13:18.136Z,21.33
2018-06-23T05:15:52.509Z,26.47
2018-06-23T05:18:27.282Z,21.87
2018-06-23T05:21:01.982Z,17.53
2018-06-23T05:23:36.661Z,17.00
2018-06-23T05:26:11.164Z,22.20
2018-06-23T05:28:45.577Z,25.23
2018-06-23T05:31:20.207Z,22.40
2018-06-23T05:33:55.091Z,18.13
2018-06-23T05:36:29.763Z,21.67
2018-06-23T05:39:06.511Z,20.70
2018-06-23T05:41:41.073Z,16.57
2018-06-23T05:44:15.868Z,22.63
2018-06-23T05:46:50.276Z,23.00
2018-06-23T05:49:24.768Z,22.40
2018-06-23T05:51:59.468Z,20.83
2018-06-23T05:54:34.052Z,18.23
2018-06-23T05:57:08.670Z,21.63
2018-06-23T05:59:43.247Z,23.40
2018-06-23T06:02:17.759Z,25.63
2018-06-23T06:04:52.480Z,28.80
2018-06-23T06:07:26.832Z,18.03
2018-06-23T06:10:01.621Z,18.93
2018-06-23T06:12:36.104Z,19.17
2018-06-23T06:15:10.502Z,21.90
2018-06-23T06:17:44.883Z,23.70
2018-06-23T06:20:19.509Z,16.03
2018-06-23T06:22:53.937Z,19.87
2018-06-23T06:25:28.485Z,18.90
2018-06-23T06:28:03.098Z,20.27
2018-06-23T06:30:37.711Z,19.30
2018-06-23T06:33:12.354Z,17.80
2018-06-23T06:35:46.976Z,18.93
2018-06-23T06:38:21.181Z,20.23
2018-06-23T06:40:55.727Z,22.83
2018-06-23T06:43:30.390Z,21.23
2018-06-23T06:46:06.046Z,18.93
2018-06-23T06:48:40.565Z,20.17
2018-06-23T06:51:15.035Z,21.87
2018-06-23T06:53:49.692Z,27.17
2018-06-23T06:56:24.767Z,29.17
2018-06-23T06:58:59.343Z,16.93
2018-06-23T07:01:34.123Z,22.50
2018-06-23T07:04:08.740Z,28.17
2018-06-23T07:06:43.248Z,18.50
2018-06-23T07:09:18.485Z,20.90
2018-06-23T07:11:53.061Z,22.00
2018-06-23T07:14:27.647Z,18.30
2018-06-23T07:17:02.347Z,19.13
2018-06-23T07:19:37.053Z,20.90
2018-06-23T07:22:11.415Z,21.03
2018-06-23T07:24:45.897Z,17.43
2018-06-23T07:27:20.871Z,21.83
2018-06-23T07:29:55.797Z,23.20
2018-06-23T07:32:30.323Z,24.47
2018-06-23T07:35:04.728Z,20.90
2018-06-23T07:37:39.103Z,20.37
2018-06-23T07:40:13.882Z,21.70
2018-06-23T07:42:48.697Z,21.53
2018-06-23T07:45:26.681Z,19.00
2018-06-23T07:48:01.312Z,19.30
2018-06-23T07:50:35.908Z,15.97
2018-06-23T07:53:12.322Z,20.67
2018-06-23T07:55:48.061Z,16.03
2018-06-23T07:58:22.911Z,22.93
2018-06-23T08:00:57.524Z,19.27
2018-06-23T08:03:35.307Z,19.47
2018-06-23T08:06:09.899Z,21.03
2018-06-23T08:08:44.565Z,19.87
2018-06-23T08:11:19.177Z,23.93
2018-06-23T08:13:53.743Z,20.10
2018-06-23T08:16:29.216Z,23.87
2018-06-23T08:19:04.336Z,22.30
2018-06-23T08:21:39.217Z,19.07
2018-06-23T08:24:14.113Z,24.93
2018-06-23T08:26:50.706Z,22.03
2018-06-23T08:29:25.836Z,24.87
2018-06-23T08:32:00.473Z,19.97
2018-06-23T08:34:35.252Z,22.80
2018-06-23T08:37:10.136Z,19.63
2018-06-23T08:39:44.709Z,21.40
2018-06-23T08:42:20.315Z,17.73
2018-06-23T08:44:54.876Z,22.93
2018-06-23T08:47:30.012Z,15.80
2018-06-23T08:50:05.313Z,17.63
2018-06-23T08:52:39.948Z,15.90
2018-06-23T08:55:14.549Z,17.50
2018-06-23T08:57:49.053Z,20.87
2018-06-23T09:00:24.515Z,17.87
2018-06-23T09:02:59.253Z,17.23
2018-06-23T09:05:33.904Z,18.27
2018-06-23T09:08:08.795Z,17.33
2018-06-23T09:10:43.770Z,21.43
2018-06-23T09:13:19.091Z,19.57
2018-06-23T09:15:53.911Z,19.97
2018-06-23T09:18:28.595Z,19.67
2018-06-23T09:21:03.192Z,22.10
2018-06-23T09:23:38.016Z,17.73
2018-06-23T09:26:12.659Z,15.30
2018-06-23T09:28:47.343Z,11.60
2018-06-23T09:31:21.873Z,9.70
2018-06-23T09:33:56.505Z,11.67
2018-06-23T09:36:31.380Z,12.57
2018-06-23T09:39:08.261Z,19.30
2018-06-23T09:41:42.860Z,14.63
2018-06-23T09:44:17.621Z,15.80
2018-06-23T09:46:52.704Z,15.53
2018-06-23T09:49:27.189Z,16.87
2018-06-23T09:52:01.822Z,18.23
2018-06-23T09:54:36.615Z,17.63
2018-06-23T09:57:11.288Z,20.30
2018-06-23T09:59:45.852Z,19.83
2018-06-23T10:02:20.563Z,14.00
2018-06-23T10:04:55.089Z,14.13
2018-06-23T10:07:29.636Z,14.57
2018-06-23T10:10:04.154Z,18.77
2018-06-23T10:12:38.853Z,10.63
2018-06-23T10:15:13.559Z,11.33
2018-06-23T10:17:48.192Z,12.67
2018-06-23T10:20:22.734Z,14.33
2018-06-23T10:22:57.406Z,8.63
2018-06-23T10:25:32.120Z,17.33
2018-06-23T10:28:06.644Z,10.53
2018-06-23T10:30:41.060Z,12.47
2018-06-23T10:33:15.509Z,14.23
2018-06-23T10:35:50.195Z,12.43
2018-06-23T10:38:24.929Z,17.10
2018-06-23T10:40:59.572Z,16.20
2018-06-23T10:43:34.043Z,17.50
2018-06-23T10:46:08.564Z,17.57
2018-06-23T10:48:43.201Z,19.23
2018-06-23T10:51:17.834Z,12.17
2018-06-23T10:53:53.304Z,14.07
2018-06-23T10:56:27.800Z,12.17
2018-06-23T10:59:02.514Z,15.50
2018-06-23T11:01:37.448Z,13.87
2018-06-23T11:04:11.980Z,10.40
2018-06-23T11:06:46.864Z,18.80
2018-06-23T11:09:21.982Z,14.57
2018-06-23T11:11:56.589Z,12.97
2018-06-23T11:14:31.097Z,16.17
2018-06-23T11:17:05.697Z,13.57
2018-06-23T11:19:40.384Z,15.53
2018-06-23T11:22:15.255Z,16.10
2018-06-23T11:24:50.000Z,12.40
2018-06-23T11:27:24.476Z,16.20
2018-06-23T11:29:59.113Z,10.60
2018-06-23T11:32:33.693Z,13.90
2018-06-23T11:35:08.305Z,13.77
2018-06-23T11:37:42.993Z,10.23
2018-06-23T11:40:17.533Z,11.93
2018-06-23T11:42:52.090Z,10.97
2018-06-23T11:45:26.626Z,10.43
2018-06-23T11:48:01.112Z,8.33
2018-06-23T11:50:35.616Z,9.33
2018-06-23T11:53:11.301Z,5.83
2018-06-23T11:55:46.358Z,8.00
2018-06-23T11:58:21.472Z,7.60
2018-06-23T12:00:56.165Z,7.77
2018-06-23T12:03:30.938Z,11.50
2018-06-23T12:06:05.596Z,9.07
2018-06-23T12:08:40.129Z,6.53
2018-06-23T12:11:14.574Z,9.13
2018-06-23T12:13:49.165Z,11.33
2018-06-23T12:16:24.183Z,12.43
2018-06-23T12:18:59.417Z,8.65
2018-06-23T12:21:34.028Z,9.00
2018-06-23T12:24:08.887Z,14.20
2018-06-23T12:26:43.540Z,7.23
2018-06-23T12:29:18.174Z,10.30
2018-06-23T12:31:52.733Z,9.40
2018-06-23T12:34:27.455Z,6.83
2018-06-23T12:37:01.953Z,9.33
2018-06-23T12:39:36.408Z,6.83
2018-06-23T12:42:10.900Z,8.83
2018-06-23T12:44:45.621Z,5.87
2018-06-23T12:47:20.296Z,7.17
2018-06-23T12:49:54.828Z,6.33
2018-06-23T12:52:29.167Z,10.57
2018-06-23T12:55:03.669Z,7.30
2018-06-23T12:57:38.272Z,7.07
2018-06-23T13:00:12.836Z,11.20
2018-06-23T13:02:47.264Z,12.60
2018-06-23T13:05:21.734Z,8.23
2018-06-23T13:07:56.244Z,10.83
2018-06-23T13:10:30.869Z,9.20
2018-06-23T13:13:05.720Z,7.43
2018-06-23T13:15:40.107Z,13.30
2018-06-23T13:18:14.626Z,6.60
2018-06-23T13:20:49.317Z,8.83
2018-06-23T13:23:23.934Z,10.33
2018-06-23T13:25:58.423Z,11.30
2018-06-23T13:28:32.994Z,14.40
2018-06-23T13:31:07.733Z,8.70
2018-06-23T13:33:42.300Z,6.73
2018-06-23T13:36:16.928Z,12.63
2018-06-23T13:38:51.492Z,6.63
2018-06-23T13:41:25.969Z,10.77
2018-06-23T13:44:00.602Z,9.00
2018-06-23T13:46:35.173Z,9.40
2018-06-23T13:49:09.752Z,5.60
2018-06-23T13:51:44.657Z,7.97
2018-06-23T13:54:23.030Z,10.77
2018-06-23T13:56:58.124Z,5.70
2018-06-23T13:59:32.940Z,9.80
2018-06-23T14:02:07.604Z,10.10
2018-06-23T14:04:42.073Z,9.43
2018-06-23T14:07:16.613Z,5.63
2018-06-23T14:09:52.270Z,7.63
2018-06-23T14:12:27.091Z,8.50
2018-06-23T14:15:01.609Z,9.70
2018-06-23T14:17:36.101Z,7.37
2018-06-23T14:20:10.689Z,11.00
2018-06-23T14:22:45.128Z,10.23
2018-06-23T14:25:19.478Z,8.90
2018-06-23T14:27:54.049Z,9.50
2018-06-23T14:30:28.847Z,9.17
2018-06-23T14:33:03.500Z,13.10
2018-06-23T14:35:37.964Z,11.50
2018-06-23T14:38:12.412Z,9.20
2018-06-23T14:40:47.529Z,10.40
2018-06-23T14:43:22.117Z,13.53
2018-06-23T14:45:56.653Z,9.40
2018-06-23T14:48:31.221Z,6.50
2018-06-23T14:51:05.811Z,8.17
2018-06-23T14:53:40.428Z,6.63
2018-06-23T14:56:15.062Z,9.77
2018-06-23T14:58:49.805Z,7.03
2018-06-23T15:01:24.377Z,10.57
2018-06-23T15:03:58.831Z,6.60
2018-06-23T15:06:33.217Z,13.53
2018-06-23T15:09:19.080Z,5.27
2018-06-23T15:12:04.791Z,12.57
2018-06-23T15:14:39.272Z,8.73
2018-06-23T15:17:13.848Z,6.23
2018-06-23T15:19:48.257Z,6.17
2018-06-23T15:22:22.705Z,6.13
2018-06-23T15:24:57.253Z,8.57
2018-06-23T15:27:31.863Z,7.13
2018-06-23T15:30:06.621Z,9.63
2018-06-23T15:32:41.174Z,10.77
2018-06-23T15:35:15.925Z,5.57
2018-06-23T15:37:50.861Z,8.83
2018-06-23T15:40:25.350Z,9.47
2018-06-23T15:42:59.822Z,8.40
2018-06-23T15:45:34.513Z,7.60
2018-06-23T15:48:08.937Z,6.87
2018-06-23T15:50:44.116Z,6.23
2018-06-23T15:53:18.777Z,7.03
2018-06-23T15:55:53.556Z,10.43
2018-06-23T15:58:28.100Z,6.07
2018-06-23T16:01:02.617Z,8.37
2018-06-23T16:03:37.222Z,10.20
2018-06-23T16:06:11.989Z,10.73
2018-06-23T16:08:46.460Z,7.17
2018-06-23T16:11:21.112Z,9.63
2018-06-23T16:13:56.058Z,20.73
2018-06-23T16:16:31.936Z,16.93
2018-06-23T16:19:07.690Z,30.40
2018-06-23T16:21:42.261Z,8.30
2018-06-23T16:24:16.816Z,10.27
2018-06-23T16:29:26.152Z,7.00
2018-06-23T16:32:00.665Z,10.17
2018-06-23T16:34:35.140Z,8.10
2018-06-23T16:37:09.472Z,9.50
2018-06-23T16:39:44.025Z,7.85
2018-06-23T16:42:18.665Z,9.57
2018-06-23T16:44:53.268Z,6.10
2018-06-23T16:47:27.991Z,6.13
2018-06-23T16:50:02.806Z,4.57
2018-06-23T16:52:37.487Z,4.03
2018-06-23T16:55:11.968Z,4.50
2018-06-23T16:57:46.433Z,5.70
2018-06-23T17:00:21.109Z,6.73
2018-06-23T17:02:55.626Z,7.17
2018-06-23T17:05:30.292Z,6.07
2018-06-23T17:08:04.916Z,8.23
2018-06-23T17:10:39.747Z,6.70
2018-06-23T17:13:14.942Z,7.93
2018-06-23T17:15:49.524Z,8.93
2018-06-23T17:18:26.112Z,7.40
2018-06-23T17:21:01.089Z,8.40
2018-06-23T17:23:35.729Z,5.13
2018-06-23T17:26:10.252Z,6.00
2018-06-23T17:28:44.900Z,6.03
2018-06-23T17:31:19.567Z,7.40
2018-06-23T17:33:55.012Z,5.57
2018-06-23T17:36:29.534Z,8.07
2018-06-23T17:39:04.921Z,9.53
2018-06-23T17:41:39.628Z,6.20
2018-06-23T17:44:14.321Z,6.33
2018-06-23T17:46:48.879Z,7.37
2018-06-23T17:49:23.537Z,7.20
2018-06-23T17:51:58.072Z,5.00
2018-06-23T17:54:32.638Z,4.30
2018-06-23T17:57:07.337Z,7.50
2018-06-23T17:59:41.900Z,11.53
2018-06-23T18:02:16.632Z,9.77
2018-06-23T18:04:51.348Z,6.27
2018-06-23T18:07:25.970Z,5.27
2018-06-23T18:10:00.633Z,6.70
2018-06-23T18:12:35.365Z,6.57
2018-06-23T18:15:10.073Z,5.60
2018-06-23T18:17:44.758Z,4.83
2018-06-23T18:20:19.393Z,5.03
2018-06-23T18:22:54.011Z,4.53
2018-06-23T18:25:28.702Z,8.00
2018-06-23T18:28:03.253Z,4.80
2018-06-23T18:30:37.827Z,9.83
2018-06-23T18:33:12.516Z,6.73
2018-06-23T18:35:47.071Z,7.47
2018-06-23T18:38:21.610Z,9.20
2018-06-23T18:40:56.177Z,7.07
2018-06-23T18:43:30.713Z,10.43
2018-06-23T18:46:05.410Z,11.10
2018-06-23T18:48:39.967Z,7.97
2018-06-23T18:51:14.649Z,6.10
2018-06-23T18:53:51.026Z,10.33
2018-06-23T18:56:25.905Z,10.20
2018-06-23T18:59:00.699Z,7.10
2018-06-23T19:01:35.419Z,7.77
2018-06-23T19:04:10.025Z,7.37
2018-06-23T19:06:44.671Z,9.23
2018-06-23T19:09:19.556Z,9.40
2018-06-23T19:11:54.124Z,7.70
2018-06-23T19:14:28.815Z,7.30
2018-06-23T19:17:03.538Z,10.80
2018-06-23T19:19:38.092Z,6.93
2018-06-23T19:22:12.725Z,9.17
2018-06-23T19:24:47.273Z,8.23
2018-06-23T19:27:21.888Z,8.03
2018-06-23T19:29:56.457Z,5.03
2018-06-23T19:32:31.803Z,6.73
2018-06-23T19:35:06.542Z,8.10
2018-06-23T19:37:41.013Z,8.23
2018-06-23T19:40:15.774Z,6.67
2018-06-23T19:42:50.225Z,6.57
2018-06-23T19:45:24.748Z,7.83
2018-06-23T19:47:59.505Z,9.57
2018-06-23T19:50:34.136Z,10.10
2018-06-23T19:53:08.636Z,8.07
2018-06-23T19:55:43.283Z,6.60
2018-06-23T19:58:17.855Z,11.80
2018-06-23T20:00:52.369Z,9.40
2018-06-23T20:03:27.042Z,6.30
2018-06-23T20:06:01.861Z,7.50
2018-06-23T20:08:36.361Z,7.27
2018-06-23T20:11:10.960Z,8.37
2018-06-23T20:13:45.522Z,8.67
2018-06-23T20:16:20.314Z,8.80
2018-06-23T20:18:55.660Z,10.37
2018-06-23T20:21:30.457Z,11.67
2018-06-23T20:24:05.144Z,11.17
2018-06-23T20:26:39.654Z,11.13
2018-06-23T20:29:14.108Z,5.70
2018-06-23T20:31:48.364Z,8.80
2018-06-23T20:34:22.718Z,10.93
2018-06-23T20:37:01.399Z,9.53
2018-06-23T20:39:35.927Z,12.77
2018-06-23T20:42:10.276Z,11.40
2018-06-23T20:44:44.748Z,10.33
2018-06-23T20:47:19.411Z,10.17
2018-06-23T20:49:53.815Z,12.60
2018-06-23T20:52:28.349Z,10.00
2018-06-23T20:55:02.957Z,13.87
2018-06-23T20:57:38.292Z,9.03
2018-06-23T21:00:12.932Z,12.17
2018-06-23T21:02:48.656Z,13.00
2018-06-23T21:05:23.628Z,10.67
2018-06-23T21:07:58.118Z,13.43
2018-06-23T21:10:45.511Z,12.73
2018-06-23T21:13:20.072Z,11.47
2018-06-23T21:15:54.568Z,13.20
2018-06-23T21:18:29.156Z,12.80
2018-06-23T21:21:03.851Z,11.33
2018-06-23T21:23:38.420Z,9.17
2018-06-23T21:26:12.818Z,12.40
2018-06-23T21:28:47.264Z,9.67
2018-06-23T21:31:22.420Z,11.70
2018-06-23T21:33:57.036Z,12.27
2018-06-23T21:36:31.500Z,7.97
2018-06-23T21:39:07.383Z,7.77
2018-06-23T21:41:41.853Z,11.87
2018-06-23T21:44:16.180Z,6.43
2018-06-23T21:46:50.471Z,13.47
2018-06-23T21:49:24.896Z,10.93
2018-06-23T21:51:59.320Z,9.00
2018-06-23T21:54:33.571Z,8.77
2018-06-23T21:57:07.951Z,8.67
2018-06-23T21:59:42.387Z,8.87
2018-06-23T22:02:16.802Z,13.60
2018-06-23T22:04:51.228Z,6.00
2018-06-23T22:07:25.612Z,10.53
2018-06-23T22:10:00.033Z,10.50
2018-06-23T22:12:34.392Z,12.83
2018-06-23T22:15:08.956Z,8.43
2018-06-23T22:17:46.965Z,9.50
2018-06-23T22:20:21.387Z,10.27
2018-06-23T22:22:56.567Z,8.13
2018-06-23T22:25:31.118Z,12.30
2018-06-23T22:28:05.706Z,11.93
2018-06-23T22:30:40.223Z,11.83
2018-06-23T22:33:14.695Z,13.70
2018-06-23T22:35:50.195Z,15.83
2018-06-23T22:38:24.725Z,11.97
2018-06-23T22:40:59.907Z,9.43
2018-06-23T22:43:34.310Z,11.03
2018-06-23T22:46:08.672Z,10.00
2018-06-23T22:48:43.131Z,9.07
2018-06-23T22:51:17.831Z,11.63
2018-06-23T22:53:52.216Z,9.80
2018-06-23T22:56:26.777Z,9.70
2018-06-23T22:59:01.348Z,9.27
2018-06-23T23:01:36.138Z,11.43
2018-06-23T23:04:10.689Z,12.50
2018-06-23T23:06:46.505Z,9.60
2018-06-23T23:09:22.092Z,9.30
2018-06-23T23:11:56.585Z,9.60
2018-06-23T23:14:31.106Z,14.63
2018-06-23T23:17:05.729Z,11.47
2018-06-23T23:19:40.360Z,11.20
2018-06-23T23:22:14.864Z,12.33
2018-06-23T23:24:49.461Z,12.27
2018-06-23T23:27:24.093Z,11.73
2018-06-23T23:29:58.544Z,12.67
2018-06-23T23:32:33.170Z,14.97
2018-06-23T23:35:07.677Z,12.27
2018-06-23T23:37:42.513Z,11.30
2018-06-23T23:40:17.616Z,12.87
2018-06-23T23:42:52.304Z,10.33
2018-06-23T23:45:26.810Z,14.23
2018-06-23T23:48:01.568Z,12.60
2018-06-23T23:50:35.936Z,11.00
2018-06-23T23:53:10.383Z,12.17
2018-06-23T23:55:44.967Z,11.27
2018-06-23T23:58:19.524Z,11.13
